Terminal Aerodrome Forecast
Issued by NWS

Home | Current Version | Previous Version | Text Only | Print | Product List | Glossary On
Versions: 1 2 3 4 5 6 7 8 9 10 11 12 13 14 15 16 17 18
000
FTUS42 KTBW 201500 AAA
TAFRSW
TAF AMD
KRSW 201523Z 2015/2112 30007KT P6SM -RA SCT025 OVC050
      TEMPO 2015/2018 4SM RA BKN025
     FM201800 27008KT P6SM VCTS SCT030CB OVC080
     FM210100 VRB04KT P6SM VCSH SCT025 OVC100
     FM210400 VRB03KT P6SM SCT020 BKN050=

USA.gov is the U.S. government's official web portal to all federal, state and local government web resources and services.